| time (UTC) | temp F | wind direction | speed MPH | gust MPH | rain 1hr in | rain 24hr in | rain mn in | humidity % | barometer mb |
| 20260503035430 | 52 | 278 | 0.0 | 0.0 | 0.00 | 0.00 | 0.00 | 47 | 1019.8 |
| 20260503034427 | 53 | 278 | 0.0 | 0.0 | 0.00 | 0.00 | 0.00 | 47 | 1019.6 |
| 20260503033425 | 52 | 266 | 0.0 | 0.0 | 0.00 | 0.00 | 0.00 | 47 | 1019.5 |
| 20260503032419 | 52 | 246 | 0.0 | 0.0 | 0.00 | 0.00 | 0.00 | 48 | 1019.4 |
| 20260503031417 | 52 | 279 | 0.0 | 0.0 | 0.00 | 0.00 | 0.00 | 47 | 1019.2 |
| 20260503030414 | 52 | 274 | 0.0 | 0.0 | 0.00 | 0.00 | 0.00 | 46 | 1019.1 |
| 20260503025412 | 53 | 283 | 0.0 | 0.0 | 0.00 | 0.00 | 0.00 | 48 | 1019.2 |
| 20260503024408 | 54 | 301 | 0.0 | 0.0 | 0.00 | 0.00 | 0.00 | 47 | 1019.2 |
| 20260503023407 | 55 | 302 | 0.0 | 0.0 | 0.00 | 0.00 | 0.00 | 46 | 1019.2 |
| 20260503022402 | 56 | 320 | 0.0 | 0.0 | 0.00 | 0.00 | 0.00 | 45 | 1019.2 |
| 20260503021359 | 57 | 317 | 2.0 | 0.0 | 0.00 | 0.00 | 0.00 | 44 | 1019.2 |
| 20260503020356 | 57 | 301 | 0.0 | 0.0 | 0.00 | 0.00 | 0.00 | 41 | 1019.2 |
| 20260503015528 | 58 | 273 | 0.0 | 0.0 | 0.00 | 0.00 | 0.00 | 39 | 1019.2 |
| 20260503015353 | 58 | 273 | 0.0 | 0.0 | 0.00 | 0.00 | 0.00 | 39 | 1019.2 |
| 20260503014351 | 57 | 275 | 0.0 | 0.0 | 0.00 | 0.00 | 0.00 | 39 | 1019.2 |
| 20260503013348 | 57 | 227 | 2.0 | 0.0 | 0.00 | 0.00 | 0.00 | 40 | 1019.3 |
| 20260503012343 | 56 | 225 | 3.0 | 0.0 | 0.00 | 0.00 | 0.00 | 42 | 1019.3 |
| 20260503011340 | 56 | 235 | 5.0 | 0.0 | 0.00 | 0.00 | 0.00 | 42 | 1019.6 |
| 20260503010419 | 56 | 324 | 0.0 | 0.0 | 0.00 | 0.00 | 0.00 | 41 | 1019.5 |
| 20260503010338 | 56 | 324 | 0.0 | 0.0 | 0.00 | 0.00 | 0.00 | 41 | 1019.5 |
| 20260503005335 | 56 | 233 | 1.0 | 0.0 | 0.00 | 0.00 | 0.00 | 43 | 1019.6 |
| 20260503004332 | 57 | 288 | 2.0 | 0.0 | 0.00 | 0.00 | 0.00 | 40 | 1019.5 |
| 20260503003331 | 58 | 282 | 6.0 | 0.0 | 0.00 | 0.00 | 0.00 | 39 | 1019.5 |
| 20260503002325 | 59 | 327 | 0.0 | 0.0 | 0.00 | 0.00 | 0.00 | 36 | 1019.2 |
| 20260503001322 | 60 | 31 | 0.0 | 0.0 | 0.00 | 0.00 | 0.00 | 34 | 1019.1 |
| 20260503000321 | 61 | 31 | 0.0 | 0.0 | 0.00 | 0.00 | 0.00 | 32 | 1019.0 |
| 20260502235317 | 61 | 346 | 0.0 | 0.0 | 0.00 | 0.00 | 0.00 | 32 | 1019.0 |
| 20260502234315 | 62 | 131 | 2.0 | 0.0 | 0.00 | 0.00 | 0.00 | 29 | 1019.0 |
| 20260502233312 | 62 | 151 | 0.0 | 0.0 | 0.00 | 0.00 | 0.00 | 29 | 1019.1 |
| 20260502232308 | 61 | 47 | 0.0 | 0.0 | 0.00 | 0.00 | 0.00 | 30 | 1019.1 |
| 20260502231351 | 61 | 336 | 2.0 | 0.0 | 0.00 | 0.00 | 0.00 | 30 | 1019.1 |
| 20260502231320 | 62 | 354 | 0.0 | 0.0 | 0.00 | 0.00 | 0.00 | 30 | 1019.2 |
| 20260502231304 | 61 | 336 | 2.0 | 0.0 | 0.00 | 0.00 | 0.00 | 30 | 1019.1 |
| 20260502230302 | 62 | 354 | 0.0 | 0.0 | 0.00 | 0.00 | 0.00 | 30 | 1019.2 |
| 20260502225152 | 62 | 316 | 2.0 | 0.0 | 0.00 | 0.00 | 0.00 | 29 | 1019.2 |
| 20260502224301 | 62 | 316 | 2.0 | 0.0 | 0.00 | 0.00 | 0.00 | 29 | 1019.2 |
| 20260502223255 | 63 | 264 | 1.0 | 0.0 | 0.00 | 0.00 | 0.00 | 29 | 1019.5 |
| 20260502222250 | 62 | 309 | 0.0 | 0.0 | 0.00 | 0.00 | 0.00 | 30 | 1019.6 |
| 20260502221247 | 62 | 301 | 1.0 | 0.0 | 0.00 | 0.00 | 0.00 | 29 | 1019.6 |
| 20260502220244 | 62 | 343 | 0.0 | 0.0 | 0.00 | 0.00 | 0.00 | 31 | 1019.8 |
| 20260502215241 | 62 | 299 | 3.0 | 0.0 | 0.00 | 0.00 | 0.00 | 30 | 1019.8 |
| 20260502214239 | 62 | 257 | 1.0 | 0.0 | 0.00 | 0.00 | 0.00 | 30 | 1019.9 |
| 20260502213236 | 61 | 339 | 0.0 | 0.0 | 0.00 | 0.00 | 0.00 | 32 | 1020.0 |
| 20260502212231 | 61 | 338 | 6.0 | 0.0 | 0.00 | 0.00 | 0.00 | 29 | 1020.1 |
| 20260502211229 | 63 | 301 | 4.0 | 0.0 | 0.00 | 0.00 | 0.00 | 27 | 1019.9 |
| 20260502210226 | 63 | 295 | 2.0 | 0.0 | 0.00 | 0.00 | 0.00 | 28 | 1020.1 |
| 20260502205222 | 63 | 114 | 1.0 | 0.0 | 0.00 | 0.00 | 0.00 | 27 | 1020.0 |
| 20260502204220 | 63 | 110 | 2.0 | 0.0 | 0.00 | 0.00 | 0.00 | 26 | 1020.1 |
| 20260502203217 | 63 | 123 | 2.0 | 0.0 | 0.00 | 0.00 | 0.00 | 28 | 1020.2 |
| 20260502202212 | 63 | 156 | 5.0 | 0.0 | 0.00 | 0.00 | 0.00 | 24 | 1020.2 |
| 20260502201210 | 63 | 142 | 3.0 | 0.0 | 0.00 | 0.00 | 0.00 | 25 | 1020.4 |
| 20260502200207 | 64 | 138 | 3.0 | 0.0 | 0.00 | 0.00 | 0.00 | 24 | 1020.3 |
| 20260502195204 | 63 | 166 | 5.0 | 0.0 | 0.00 | 0.00 | 0.00 | 25 | 1020.5 |
| 20260502194203 | 64 | 160 | 1.0 | 0.0 | 0.00 | 0.00 | 0.00 | 24 | 1020.7 |
| 20260502193159 | 64 | 183 | 2.0 | 0.0 | 0.00 | 0.00 | 0.00 | 25 | 1020.8 |
| 20260502192154 | 63 | 138 | 4.0 | 0.0 | 0.00 | 0.00 | 0.00 | 24 | 1020.9 |
| 20260502191152 | 64 | 219 | 4.0 | 0.0 | 0.00 | 0.00 | 0.00 | 23 | 1021.1 |
| 20260502190149 | 63 | 143 | 3.0 | 0.0 | 0.00 | 0.00 | 0.00 | 23 | 1021.2 |
| 20260502185147 | 63 | 127 | 3.0 | 0.0 | 0.00 | 0.00 | 0.00 | 23 | 1021.1 |
| 20260502183141 | 62 | 123 | 5.0 | 0.0 | 0.00 | 0.00 | 0.00 | 23 | 1021.1 |
| 20260502182136 | 62 | 206 | 1.0 | 0.0 | 0.00 | 0.00 | 0.00 | 24 | 1021.3 |
| 20260502181135 | 61 | 141 | 1.0 | 0.0 | 0.00 | 0.00 | 0.00 | 25 | 1021.3 |
| 20260502180131 | 62 | 168 | 1.0 | 0.0 | 0.00 | 0.00 | 0.00 | 24 | 1021.3 |
| 20260502170113 | 60 | 143 | 3.0 | 0.0 | 0.00 | 0.00 | 0.00 | 23 | 1021.4 |
| 20260502164108 | 58 | 143 | 2.0 | 0.0 | 0.00 | 0.00 | 0.00 | 23 | 1021.4 |
| 20260502162100 | 58 | 185 | 1.0 | 0.0 | 0.00 | 0.00 | 0.00 | 25 | 1021.4 |
| 20260502161058 | 58 | 127 | 1.0 | 0.0 | 0.00 | 0.00 | 0.00 | 25 | 1021.5 |
| 20260502152042 | 55 | 148 | 1.0 | 0.0 | 0.00 | 0.00 | 0.00 | 29 | 1021.7 |
| 20260502151040 | 55 | 216 | 3.0 | 0.0 | 0.00 | 0.00 | 0.00 | 28 | 1021.7 |
| 20260502122953 | 51 | 211 | 3.0 | 0.0 | 0.00 | 0.00 | 0.00 | 37 | 1021.4 |
| 20260502121949 | 51 | 213 | 0.0 | 0.0 | 0.00 | 0.00 | 0.00 | 36 | 1021.4 |
| 20260502120946 | 52 | 212 | 5.0 | 0.0 | 0.00 | 0.00 | 0.00 | 36 | 1021.5 |
| 20260502114941 | 51 | 208 | 5.0 | 0.0 | 0.00 | 0.00 | 0.00 | 37 | 1021.7 |
| 20260502113938 | 51 | 206 | 2.0 | 0.0 | 0.00 | 0.00 | 0.00 | 38 | 1021.7 |
| 20260502112935 | 50 | 193 | 4.0 | 0.0 | 0.00 | 0.00 | 0.00 | 39 | 1021.8 |
| 20260502111931 | 51 | 155 | 3.0 | 0.0 | 0.00 | 0.00 | 0.00 | 39 | 1021.8 |
| 20260502110927 | 50 | 162 | 0.0 | 0.0 | 0.00 | 0.00 | 0.00 | 40 | 1021.8 |
| 20260502105925 | 50 | 184 | 0.0 | 0.0 | 0.00 | 0.00 | 0.00 | 41 | 1022.0 |
| 20260502104922 | 48 | 209 | 0.0 | 0.0 | 0.00 | 0.00 | 0.00 | 46 | 1022.1 |
| 20260502103919 | 48 | 179 | 0.0 | 0.0 | 0.00 | 0.00 | 0.00 | 47 | 1022.1 |
| 20260502102917 | 48 | 144 | 0.0 | 0.0 | 0.00 | 0.00 | 0.00 | 47 | 1022.1 |
| 20260502101912 | 47 | 145 | 0.0 | 0.0 | 0.00 | 0.00 | 0.00 | 48 | 1022.2 |
| 20260502100909 | 47 | 158 | 0.0 | 0.0 | 0.00 | 0.00 | 0.00 | 47 | 1022.2 |
| 20260502090851 | 47 | 170 | 0.0 | 0.0 | 0.00 | 0.00 | 0.00 | 39 | 1022.4 |
| 20260502070816 | 46 | 172 | 1.0 | 0.0 | 0.00 | 0.00 | 0.00 | 42 | 1022.7 |
| 20260502065813 | 46 | 129 | 1.0 | 0.0 | 0.00 | 0.00 | 0.00 | 43 | 1022.7 |
| 20260502064810 | 46 | 140 | 0.0 | 0.0 | 0.00 | 0.00 | 0.00 | 45 | 1022.7 |
| 20260502063807 | 46 | 169 | 1.0 | 0.0 | 0.00 | 0.00 | 0.00 | 46 | 1022.6 |
| 20260502062805 | 47 | 107 | 1.0 | 0.0 | 0.00 | 0.00 | 0.00 | 45 | 1022.6 |
| 20260502061800 | 46 | 117 | 1.0 | 0.0 | 0.00 | 0.00 | 0.00 | 45 | 1022.6 |
| 20260502060757 | 46 | 135 | 1.0 | 0.0 | 0.00 | 0.00 | 0.00 | 47 | 1022.7 |
| 20260502055755 | 46 | 179 | 2.0 | 0.0 | 0.00 | 0.00 | 0.00 | 47 | 1022.7 |
| 20260502054752 | 46 | 152 | 1.0 | 0.0 | 0.00 | 0.00 | 0.00 | 46 | 1022.7 |
| 20260502053749 | 46 | 146 | 0.0 | 0.0 | 0.00 | 0.00 | 0.00 | 52 | 1022.9 |
| 20260502052747 | 46 | 125 | 0.0 | 0.0 | 0.00 | 0.00 | 0.00 | 52 | 1022.9 |
| 20260502051742 | 46 | 133 | 0.0 | 0.0 | 0.00 | 0.00 | 0.00 | 52 | 1023.0 |
| 20260502050739 | 47 | 163 | 0.0 | 0.0 | 0.00 | 0.00 | 0.00 | 50 | 1023.0 |
| 20260502045737 | 47 | 147 | 0.0 | 0.0 | 0.00 | 0.00 | 0.00 | 50 | 1023.0 |
| 20260502044734 | 48 | 164 | 0.0 | 0.0 | 0.00 | 0.00 | 0.00 | 48 | 1023.1 |
| 20260502043732 | 49 | 200 | 0.0 | 0.0 | 0.00 | 0.00 | 0.00 | 47 | 1023.1 |
| 20260502042729 | 50 | 231 | 1.0 | 0.0 | 0.00 | 0.00 | 0.00 | 45 | 1023.2 |
| 20260502041724 | 49 | 226 | 4.0 | 0.0 | 0.00 | 0.00 | 0.00 | 46 | 1023.3 |
| 20260502040722 | 49 | 210 | 1.0 | 0.0 | 0.00 | 0.00 | 0.00 | 47 | 1023.3 |